createdAt,value
2024-02-19T00:00:52.126Z,1.45
2024-02-19T00:03:19.340Z,1.85
2024-02-19T00:05:46.622Z,1.65
2024-02-19T00:08:13.587Z,2.17
2024-02-19T00:10:40.214Z,1.83
2024-02-19T00:13:07.230Z,1.33
2024-02-19T00:15:33.898Z,1.88
2024-02-19T00:18:00.628Z,1.58
2024-02-19T00:20:27.408Z,3.20
2024-02-19T00:22:53.983Z,1.20
2024-02-19T00:25:20.649Z,1.50
2024-02-19T00:27:50.507Z,1.58
2024-02-19T00:30:17.682Z,1.27
2024-02-19T00:32:44.354Z,1.75
2024-02-19T00:35:11.604Z,2.08
2024-02-19T00:37:39.022Z,2.17
2024-02-19T00:40:06.361Z,1.42
2024-02-19T00:42:33.076Z,1.13
2024-02-19T00:45:00.067Z,1.40
2024-02-19T00:47:26.684Z,1.20
2024-02-19T00:49:53.426Z,0.95
2024-02-19T00:52:20.136Z,1.25
2024-02-19T00:54:47.147Z,1.70
2024-02-19T00:57:13.750Z,1.40
2024-02-19T00:59:40.707Z,1.08
2024-02-19T01:02:07.379Z,1.33
2024-02-19T01:04:34.455Z,1.15
2024-02-19T01:07:01.175Z,0.63
2024-02-19T01:09:28.120Z,1.02
2024-02-19T01:11:54.653Z,1.27
2024-02-19T01:14:21.234Z,2.60
2024-02-19T01:16:47.927Z,1.23
2024-02-19T01:19:14.759Z,1.73
2024-02-19T01:21:41.743Z,1.45
2024-02-19T01:24:09.693Z,1.15
2024-02-19T01:26:36.909Z,1.55
2024-02-19T01:29:03.827Z,3.33
2024-02-19T01:31:30.604Z,1.38
2024-02-19T01:33:57.362Z,1.33
2024-02-19T01:36:24.119Z,1.30
2024-02-19T01:38:50.804Z,1.77
2024-02-19T01:41:17.461Z,2.13
2024-02-19T01:43:44.592Z,1.55
2024-02-19T01:46:12.130Z,1.10
2024-02-19T01:48:39.218Z,1.35
2024-02-19T01:51:06.116Z,1.30
2024-02-19T01:53:32.840Z,1.00
2024-02-19T01:56:00.007Z,1.42
2024-02-19T01:58:27.472Z,0.95
2024-02-19T02:00:54.700Z,1.65
2024-02-19T02:03:22.855Z,1.13
2024-02-19T02:05:50.240Z,1.17
2024-02-19T02:08:17.742Z,1.38
2024-02-19T02:10:44.442Z,0.90
2024-02-19T02:13:11.216Z,1.30
2024-02-19T02:15:38.051Z,1.17
2024-02-19T02:18:05.097Z,1.20
2024-02-19T02:20:32.789Z,1.38
2024-02-19T02:23:00.096Z,1.63
2024-02-19T02:25:26.883Z,1.55
2024-02-19T02:27:53.969Z,1.20
2024-02-19T02:30:20.704Z,0.90
2024-02-19T02:32:47.675Z,1.10
2024-02-19T02:35:16.502Z,1.10
2024-02-19T02:37:43.291Z,0.77
2024-02-19T02:40:10.566Z,1.20
2024-02-19T02:42:37.309Z,0.75
2024-02-19T02:45:05.188Z,1.17
2024-02-19T02:47:31.925Z,1.50
2024-02-19T02:49:58.599Z,0.93
2024-02-19T02:52:25.317Z,1.15
2024-02-19T02:54:52.026Z,1.77
2024-02-19T02:57:18.861Z,1.02
2024-02-19T02:59:45.834Z,1.08
2024-02-19T03:02:12.515Z,1.05
2024-02-19T03:04:39.261Z,1.00
2024-02-19T03:07:05.992Z,1.08
2024-02-19T03:09:33.077Z,0.90
2024-02-19T03:11:59.725Z,0.77
2024-02-19T03:14:26.765Z,0.90
2024-02-19T03:16:53.414Z,1.05
2024-02-19T03:19:21.864Z,1.75
2024-02-19T03:21:48.695Z,0.85
2024-02-19T03:24:15.798Z,0.70
2024-02-19T03:26:43.446Z,0.82
2024-02-19T03:29:16.184Z,0.80
2024-02-19T03:31:43.986Z,1.10
2024-02-19T03:34:11.625Z,0.98
2024-02-19T03:36:38.667Z,1.13
2024-02-19T03:39:06.237Z,1.00
2024-02-19T03:41:33.645Z,0.90
2024-02-19T03:44:00.942Z,0.75
2024-02-19T03:46:28.025Z,0.70
2024-02-19T03:48:57.923Z,1.08
2024-02-19T03:51:24.893Z,0.93
2024-02-19T03:53:51.977Z,0.98
2024-02-19T03:56:19.311Z,0.70
2024-02-19T03:58:46.179Z,0.93
2024-02-19T04:01:13.307Z,0.90
2024-02-19T04:03:40.196Z,0.95
2024-02-19T04:06:07.749Z,0.77
2024-02-19T04:08:34.518Z,0.80
2024-02-19T04:11:01.348Z,0.90
2024-02-19T04:13:28.101Z,1.02
2024-02-19T04:15:58.226Z,0.90
2024-02-19T04:18:25.177Z,1.08
2024-02-19T04:20:52.067Z,0.70
2024-02-19T04:23:20.954Z,0.90
2024-02-19T04:25:49.437Z,1.00
2024-02-19T04:28:16.249Z,0.68
2024-02-19T04:30:43.163Z,0.60
2024-02-19T04:33:11.021Z,0.65
2024-02-19T04:35:37.845Z,0.68
2024-02-19T04:38:04.745Z,0.90
2024-02-19T04:40:31.553Z,0.80
2024-02-19T04:42:58.515Z,1.27
2024-02-19T04:45:25.209Z,0.90
2024-02-19T04:47:52.280Z,0.85
2024-02-19T04:50:19.481Z,1.10
2024-02-19T04:52:46.310Z,1.10
2024-02-19T04:55:13.092Z,0.93
2024-02-19T04:57:39.938Z,0.95
2024-02-19T05:00:07.343Z,0.90
2024-02-19T05:02:34.393Z,1.05
2024-02-19T05:05:01.216Z,1.33
2024-02-19T05:07:28.367Z,1.30
2024-02-19T05:09:56.278Z,1.25
2024-02-19T05:12:23.438Z,1.13
2024-02-19T05:14:50.516Z,0.80
2024-02-19T05:17:17.181Z,1.00
2024-02-19T05:19:44.640Z,1.10
2024-02-19T05:22:11.497Z,1.10
2024-02-19T05:24:38.652Z,0.77
2024-02-19T05:27:05.623Z,0.90
2024-02-19T05:29:32.700Z,0.68
2024-02-19T05:32:01.206Z,0.93
2024-02-19T05:34:28.321Z,2.67
2024-02-19T05:36:55.226Z,1.00
2024-02-19T05:39:22.397Z,1.17
2024-02-19T05:41:49.134Z,0.90
2024-02-19T05:44:16.261Z,0.80
2024-02-19T05:46:44.631Z,0.85
2024-02-19T05:49:19.242Z,1.13
2024-02-19T05:51:45.961Z,0.70
2024-02-19T05:54:13.084Z,1.05
2024-02-19T05:56:39.746Z,0.68
2024-02-19T05:59:06.545Z,0.73
2024-02-19T06:01:33.383Z,0.98
2024-02-19T06:04:00.604Z,1.15
2024-02-19T06:06:27.396Z,1.27
2024-02-19T06:08:54.287Z,1.50
2024-02-19T06:11:22.316Z,1.38
2024-02-19T06:13:49.886Z,1.25
2024-02-19T06:16:17.215Z,0.60
2024-02-19T06:18:44.500Z,1.75
2024-02-19T06:21:11.194Z,0.80
2024-02-19T06:23:37.932Z,0.85
2024-02-19T06:26:05.237Z,0.68
2024-02-19T06:28:31.980Z,1.20
2024-02-19T06:30:58.659Z,0.88
2024-02-19T06:33:25.622Z,0.80
2024-02-19T06:35:52.385Z,1.33
2024-02-19T06:38:19.097Z,1.27
2024-02-19T06:40:46.187Z,1.35
2024-02-19T06:43:12.900Z,1.15
2024-02-19T06:45:39.725Z,1.02
2024-02-19T06:48:06.935Z,1.33
2024-02-19T06:50:33.990Z,1.17
2024-02-19T06:53:00.685Z,0.95
2024-02-19T06:55:27.978Z,1.23
2024-02-19T06:57:54.813Z,0.85
2024-02-19T07:00:22.813Z,1.40
2024-02-19T07:02:49.682Z,1.25
2024-02-19T07:05:16.828Z,1.20
2024-02-19T07:07:43.660Z,1.55
2024-02-19T07:10:10.489Z,1.30
2024-02-19T07:12:37.296Z,1.10
2024-02-19T07:15:04.566Z,1.00
2024-02-19T07:17:31.991Z,1.67
2024-02-19T07:20:00.181Z,1.40
2024-02-19T07:22:27.600Z,0.98
2024-02-19T07:25:03.035Z,1.17
2024-02-19T07:27:37.232Z,1.42
2024-02-19T07:30:04.863Z,1.20
2024-02-19T07:32:32.052Z,1.15
2024-02-19T07:34:58.809Z,1.10
2024-02-19T07:37:26.041Z,1.05
2024-02-19T07:39:52.836Z,1.60
2024-02-19T07:42:20.299Z,1.60
2024-02-19T07:44:46.979Z,1.67
2024-02-19T07:47:13.715Z,1.45
2024-02-19T07:49:40.494Z,1.40
2024-02-19T07:52:07.726Z,1.42
2024-02-19T07:54:34.503Z,1.35
2024-02-19T07:57:01.286Z,1.20
2024-02-19T07:59:28.567Z,1.63
2024-02-19T08:01:55.436Z,1.02
2024-02-19T08:04:28.388Z,1.30
2024-02-19T08:06:58.509Z,1.35
2024-02-19T08:09:27.434Z,1.40
2024-02-19T08:11:54.475Z,1.10
2024-02-19T08:14:21.281Z,1.45
2024-02-19T08:16:50.097Z,1.15
2024-02-19T08:19:17.583Z,1.40
2024-02-19T08:21:44.469Z,1.30
2024-02-19T08:24:11.482Z,1.15
2024-02-19T08:26:38.210Z,1.60
2024-02-19T08:29:05.725Z,1.88
2024-02-19T08:31:35.028Z,2.38
2024-02-19T08:34:02.337Z,1.58
2024-02-19T08:36:29.151Z,1.20
2024-02-19T08:38:56.907Z,1.90
2024-02-19T08:41:23.745Z,1.00
2024-02-19T08:43:51.321Z,1.27
2024-02-19T08:46:18.146Z,1.00
2024-02-19T08:48:45.038Z,1.80
2024-02-19T08:51:12.537Z,1.63
2024-02-19T08:53:39.201Z,2.28
2024-02-19T08:56:06.068Z,1.40
2024-02-19T08:58:33.510Z,1.02
2024-02-19T09:01:01.196Z,1.25
2024-02-19T09:03:28.187Z,1.30
2024-02-19T09:05:55.035Z,1.00
2024-02-19T09:08:21.857Z,1.38
2024-02-19T09:10:48.821Z,1.20
2024-02-19T09:13:15.630Z,0.75
2024-02-19T09:15:42.368Z,1.52
2024-02-19T09:18:09.248Z,0.98
2024-02-19T09:20:36.097Z,1.20
2024-02-19T09:23:03.496Z,1.05
2024-02-19T09:25:30.609Z,0.77
2024-02-19T09:27:57.687Z,1.10
2024-02-19T09:30:25.202Z,1.35
2024-02-19T09:32:52.213Z,1.05
2024-02-19T09:35:19.754Z,0.80
2024-02-19T09:37:49.572Z,0.80
2024-02-19T09:40:18.086Z,1.13
2024-02-19T09:42:49.085Z,1.33
2024-02-19T09:45:16.309Z,1.17
2024-02-19T09:47:47.007Z,1.00
2024-02-19T09:50:17.101Z,0.85
2024-02-19T09:52:45.665Z,1.52
2024-02-19T09:55:15.913Z,1.27
2024-02-19T09:57:42.950Z,1.05
2024-02-19T10:00:11.351Z,0.90
2024-02-19T10:02:39.883Z,0.82
2024-02-19T10:05:13.313Z,1.63
2024-02-19T10:07:41.075Z,1.17
2024-02-19T10:10:10.427Z,1.10
2024-02-19T10:12:37.172Z,0.80
2024-02-19T10:15:07.301Z,0.85
2024-02-19T10:17:34.048Z,0.93
2024-02-19T10:20:02.585Z,0.82
2024-02-19T10:22:29.284Z,1.50
2024-02-19T10:24:56.392Z,1.20
2024-02-19T10:27:23.580Z,1.40
2024-02-19T10:29:50.416Z,0.77
2024-02-19T10:32:17.127Z,1.08
2024-02-19T10:34:44.196Z,1.00
2024-02-19T10:37:11.271Z,1.55
2024-02-19T10:39:38.328Z,1.00
2024-02-19T10:42:05.666Z,0.77
2024-02-19T10:44:34.528Z,0.88
2024-02-19T10:47:02.332Z,0.80
2024-02-19T10:49:29.066Z,0.90
2024-02-19T10:51:57.867Z,0.85
2024-02-19T10:54:24.890Z,1.08
2024-02-19T10:56:53.167Z,1.05
2024-02-19T10:59:19.974Z,1.25
2024-02-19T11:01:51.106Z,1.05
2024-02-19T11:04:18.452Z,0.80
2024-02-19T11:06:57.835Z,0.85
2024-02-19T11:09:35.611Z,0.82
2024-02-19T11:12:04.321Z,1.15
2024-02-19T11:14:34.305Z,0.77
2024-02-19T11:17:02.434Z,0.82
2024-02-19T11:19:31.062Z,1.02
2024-02-19T11:22:11.476Z,0.98
2024-02-19T11:24:39.629Z,0.55
2024-02-19T11:27:07.150Z,1.60
2024-02-19T11:29:43.420Z,0.90
2024-02-19T11:32:20.487Z,1.23
2024-02-19T11:34:48.773Z,0.60
2024-02-19T11:37:16.173Z,1.00
2024-02-19T11:39:44.928Z,1.63
2024-02-19T11:42:16.833Z,1.33
2024-02-19T11:44:44.788Z,1.25
2024-02-19T11:47:11.968Z,0.70
2024-02-19T11:49:39.684Z,0.80
2024-02-19T11:52:11.824Z,1.10
2024-02-19T11:54:40.075Z,0.73
2024-02-19T11:57:09.011Z,0.93
2024-02-19T11:59:37.207Z,1.38
2024-02-19T12:02:07.185Z,0.77
2024-02-19T12:04:39.417Z,0.68
2024-02-19T12:07:07.122Z,1.05
2024-02-19T12:09:33.927Z,1.27
2024-02-19T12:12:00.846Z,0.77
2024-02-19T12:14:27.958Z,0.90
2024-02-19T12:16:56.697Z,0.90
2024-02-19T12:19:26.016Z,1.02
2024-02-19T12:21:53.803Z,1.48
2024-02-19T12:24:20.829Z,0.80
2024-02-19T12:26:47.548Z,1.00
2024-02-19T12:29:14.708Z,1.05
2024-02-19T12:31:41.748Z,0.75
2024-02-19T12:34:10.219Z,0.80
2024-02-19T12:36:38.115Z,0.73
2024-02-19T12:39:11.070Z,1.10
2024-02-19T12:41:38.120Z,0.65
2024-02-19T12:44:05.893Z,0.52
2024-02-19T12:46:34.787Z,0.90
2024-02-19T12:49:02.670Z,0.98
2024-02-19T12:51:37.423Z,0.98
2024-02-19T12:54:06.754Z,1.17
2024-02-19T12:56:33.507Z,1.08
2024-02-19T12:59:03.254Z,1.08
2024-02-19T13:01:32.960Z,0.80
2024-02-19T13:04:01.745Z,0.70
2024-02-19T13:06:29.286Z,0.82
2024-02-19T13:08:58.152Z,0.80
2024-02-19T13:11:29.665Z,0.88
2024-02-19T13:16:27.861Z,1.00
2024-02-19T13:18:54.689Z,0.80
2024-02-19T13:21:21.822Z,0.82
2024-02-19T13:23:48.961Z,0.68
2024-02-19T13:26:15.971Z,0.93
2024-02-19T13:28:43.279Z,0.70
2024-02-19T13:31:10.456Z,1.27
2024-02-19T13:33:37.801Z,1.00
2024-02-19T13:36:05.203Z,0.80
2024-02-19T13:38:32.316Z,1.42
2024-02-19T13:41:04.390Z,1.42
2024-02-19T13:43:34.068Z,1.10
2024-02-19T13:46:05.127Z,0.90
2024-02-19T13:48:33.418Z,0.80
2024-02-19T13:51:02.216Z,5.20
2024-02-19T13:53:30.469Z,2.03
2024-02-19T13:55:59.039Z,0.75
2024-02-19T13:58:27.354Z,1.52
2024-02-19T14:00:55.655Z,1.25
2024-02-19T14:03:23.232Z,1.10
2024-02-19T14:05:50.639Z,1.30
2024-02-19T14:08:20.025Z,1.80
2024-02-19T14:10:49.508Z,0.70
2024-02-19T14:13:17.413Z,0.88
2024-02-19T14:15:44.920Z,0.95
2024-02-19T14:18:12.036Z,1.42
2024-02-19T14:20:39.159Z,0.90
2024-02-19T14:23:08.371Z,1.20
2024-02-19T14:25:37.213Z,0.88
2024-02-19T14:28:05.789Z,1.10
2024-02-19T14:30:33.049Z,0.85
2024-02-19T14:33:02.863Z,0.80
2024-02-19T14:35:29.706Z,1.00
2024-02-19T14:37:56.933Z,1.10
2024-02-19T14:40:24.711Z,1.35
2024-02-19T14:42:52.100Z,1.38
2024-02-19T14:45:19.311Z,2.47
2024-02-19T14:47:50.075Z,2.67
2024-02-19T14:50:17.326Z,1.88
2024-02-19T14:52:44.892Z,2.20
2024-02-19T14:55:13.500Z,1.00
2024-02-19T14:57:41.307Z,1.17
2024-02-19T15:00:14.193Z,1.13
2024-02-19T15:02:42.069Z,0.70
2024-02-19T15:05:09.957Z,1.05
2024-02-19T15:07:37.466Z,1.20
2024-02-19T15:10:05.071Z,0.77
2024-02-19T15:12:31.884Z,0.80
2024-02-19T15:14:59.656Z,1.77
2024-02-19T15:17:27.186Z,0.80
2024-02-19T15:19:54.495Z,1.00
2024-02-19T15:22:21.461Z,1.38
2024-02-19T15:24:48.622Z,1.48
2024-02-19T15:27:15.533Z,1.42
2024-02-19T15:29:42.608Z,1.20
2024-02-19T15:32:11.378Z,1.63
2024-02-19T15:34:38.642Z,1.08
2024-02-19T15:37:09.634Z,2.08
2024-02-19T15:39:40.498Z,1.40
2024-02-19T15:42:11.334Z,0.90
2024-02-19T15:44:44.955Z,1.30
2024-02-19T15:47:15.128Z,1.30
2024-02-19T15:49:51.648Z,1.27
2024-02-19T15:52:26.969Z,1.20
2024-02-19T15:55:00.454Z,1.10
2024-02-19T15:57:33.051Z,0.90
2024-02-19T16:00:02.239Z,0.95
2024-02-19T16:02:43.274Z,1.10
2024-02-19T16:05:13.658Z,1.20
2024-02-19T16:07:44.881Z,1.23
2024-02-19T16:12:56.529Z,1.45
2024-02-19T16:15:32.103Z,0.73
2024-02-19T16:18:09.386Z,0.82
2024-02-19T16:20:41.204Z,0.95
2024-02-19T16:23:14.541Z,1.17
2024-02-19T16:25:44.221Z,1.10
2024-02-19T16:28:16.907Z,1.95
2024-02-19T16:30:49.600Z,1.13
2024-02-19T16:33:26.677Z,1.40
2024-02-19T16:35:55.071Z,1.30
2024-02-19T16:38:29.303Z,1.20
2024-02-19T16:41:01.810Z,1.00
2024-02-19T16:43:35.093Z,1.30
2024-02-19T16:46:05.719Z,1.58
2024-02-19T16:48:39.537Z,0.70
2024-02-19T16:51:07.084Z,1.40
2024-02-19T16:53:36.930Z,1.20
2024-02-19T16:56:04.803Z,1.30
2024-02-19T16:58:37.916Z,1.17
2024-02-19T17:01:07.248Z,1.35
2024-02-19T17:03:41.519Z,1.30
2024-02-19T17:06:14.367Z,1.48
2024-02-19T17:08:49.282Z,1.02
2024-02-19T17:11:22.082Z,2.30
2024-02-19T17:13:54.757Z,1.85
2024-02-19T17:16:23.836Z,1.33
2024-02-19T17:18:54.087Z,1.48
2024-02-19T17:21:24.232Z,1.23
2024-02-19T17:23:51.625Z,1.10
2024-02-19T17:26:19.467Z,1.20
2024-02-19T17:28:48.658Z,1.58
2024-02-19T17:31:23.213Z,1.30
2024-02-19T17:33:52.958Z,1.35
2024-02-19T17:36:25.491Z,0.93
2024-02-19T17:38:55.073Z,1.45
2024-02-19T17:41:24.600Z,1.80
2024-02-19T17:43:52.589Z,1.27
2024-02-19T17:46:19.918Z,1.70
2024-02-19T17:48:50.480Z,1.45
2024-02-19T17:51:27.711Z,1.45
2024-02-19T17:53:59.727Z,1.67
2024-02-19T17:56:32.251Z,2.20
2024-02-19T17:59:00.549Z,2.10
2024-02-19T18:01:28.921Z,1.50
2024-02-19T18:04:00.434Z,1.38
2024-02-19T18:06:27.450Z,1.80
2024-02-19T18:08:58.203Z,2.70
2024-02-19T18:11:30.143Z,3.20
2024-02-19T18:14:00.071Z,4.40
2024-02-19T18:16:29.273Z,2.25
2024-02-19T18:19:07.009Z,2.95
2024-02-19T18:21:35.759Z,2.60
2024-02-19T18:24:05.675Z,2.75
2024-02-19T18:26:34.998Z,2.30
2024-02-19T18:29:05.110Z,2.33
2024-02-19T18:31:37.978Z,2.70
2024-02-19T18:34:08.254Z,2.15
2024-02-19T18:36:40.724Z,2.10
2024-02-19T18:39:11.197Z,2.13
2024-02-19T18:41:45.376Z,2.35
2024-02-19T18:44:24.598Z,2.92
2024-02-19T18:47:04.447Z,2.65
2024-02-19T18:49:35.504Z,2.47
2024-02-19T18:52:07.451Z,2.13
2024-02-19T18:54:46.996Z,2.70
2024-02-19T18:57:17.737Z,3.30
2024-02-19T18:59:47.353Z,2.92
2024-02-19T19:02:18.677Z,2.38
2024-02-19T19:07:26.186Z,2.00
2024-02-19T19:10:04.300Z,2.67
2024-02-19T19:12:34.538Z,3.08
2024-02-19T19:15:10.417Z,2.75
2024-02-19T19:17:40.337Z,2.78
2024-02-19T19:20:13.008Z,2.78
2024-02-19T19:22:44.628Z,2.92
2024-02-19T19:25:19.427Z,2.70
2024-02-19T19:27:49.598Z,3.47
2024-02-19T19:30:21.068Z,2.55
2024-02-19T19:32:52.985Z,3.15
2024-02-19T19:35:26.162Z,3.47
2024-02-19T19:37:57.897Z,3.10
2024-02-19T19:40:28.114Z,2.47
2024-02-19T19:42:58.806Z,2.78
2024-02-19T19:45:31.559Z,3.13
2024-02-19T19:50:41.105Z,3.05
2024-02-19T19:53:12.296Z,3.17
2024-02-19T19:55:43.176Z,3.15
2024-02-19T19:58:17.042Z,3.20
2024-02-19T20:00:45.903Z,3.30
2024-02-19T20:03:12.708Z,3.33
2024-02-19T20:05:39.822Z,4.75
2024-02-19T20:08:07.392Z,3.50
2024-02-19T20:10:34.684Z,3.45
2024-02-19T20:13:01.685Z,3.10
2024-02-19T20:15:28.440Z,3.17
2024-02-19T20:17:55.299Z,2.95
2024-02-19T20:20:22.182Z,2.97
2024-02-19T20:22:49.172Z,2.67
2024-02-19T20:25:19.219Z,2.60
2024-02-19T20:27:46.210Z,3.28
2024-02-19T20:30:20.011Z,2.97
2024-02-19T20:32:50.451Z,2.63
2024-02-19T20:35:20.568Z,2.80
2024-02-19T20:37:49.474Z,2.78
2024-02-19T20:40:22.873Z,2.72
2024-02-19T20:43:01.140Z,2.80
2024-02-19T20:45:29.650Z,3.33
2024-02-19T20:48:02.683Z,2.30
2024-02-19T20:50:34.338Z,3.25
2024-02-19T20:55:35.562Z,2.88
2024-02-19T20:58:06.871Z,2.75
2024-02-19T21:03:15.778Z,2.78
2024-02-19T21:05:47.261Z,3.25
2024-02-19T21:08:30.467Z,3.67
2024-02-19T21:11:04.779Z,5.07
2024-02-19T21:13:38.746Z,7.13
2024-02-19T21:16:11.524Z,4.43
2024-02-19T21:18:47.945Z,4.95
2024-02-19T21:21:34.437Z,3.80
2024-02-19T21:24:09.445Z,4.55
2024-02-19T21:26:42.213Z,5.68
2024-02-19T21:29:12.421Z,5.15
2024-02-19T21:31:49.570Z,4.25
2024-02-19T21:34:29.691Z,5.03
2024-02-19T21:37:19.546Z,11.13
2024-02-19T21:39:55.566Z,5.05
2024-02-19T21:42:32.185Z,4.00
2024-02-19T21:45:08.192Z,4.47
2024-02-19T21:47:43.235Z,5.53
2024-02-19T21:50:18.160Z,5.28
2024-02-19T21:53:27.110Z,3.70
2024-02-19T21:55:56.956Z,3.72
2024-02-19T21:58:28.977Z,3.78
2024-02-19T22:00:58.469Z,4.68
2024-02-19T22:03:25.808Z,4.00
2024-02-19T22:05:56.050Z,3.80
2024-02-19T22:08:25.319Z,3.67
2024-02-19T22:10:56.297Z,3.65
2024-02-19T22:13:35.721Z,3.83
2024-02-19T22:16:06.187Z,3.90
2024-02-19T22:18:37.539Z,4.07
2024-02-19T22:21:06.681Z,4.72
2024-02-19T22:23:35.387Z,4.05
2024-02-19T22:26:09.050Z,3.75
2024-02-19T22:28:38.835Z,3.88
2024-02-19T22:31:10.649Z,3.80
2024-02-19T22:33:47.513Z,4.15
2024-02-19T22:36:23.413Z,4.22
2024-02-19T22:38:50.613Z,3.70
2024-02-19T22:41:17.262Z,6.03
2024-02-19T22:43:43.952Z,4.32
2024-02-19T22:46:10.650Z,3.72
2024-02-19T22:48:37.449Z,3.80
2024-02-19T22:51:04.319Z,3.25
2024-02-19T22:53:31.321Z,3.25
2024-02-19T22:55:58.031Z,3.95
2024-02-19T22:58:31.719Z,4.38
2024-02-19T23:01:01.621Z,3.80
2024-02-19T23:03:28.875Z,8.13
2024-02-19T23:05:56.328Z,3.35
2024-02-19T23:08:23.673Z,3.78
2024-02-19T23:10:52.471Z,4.07
2024-02-19T23:13:19.974Z,3.08
2024-02-19T23:15:46.921Z,3.60
2024-02-19T23:18:13.999Z,3.53
2024-02-19T23:20:40.964Z,3.63
2024-02-19T23:23:08.450Z,3.55
2024-02-19T23:25:35.402Z,3.85
2024-02-19T23:28:02.170Z,3.97
2024-02-19T23:30:30.373Z,3.78
2024-02-19T23:32:57.229Z,3.72
2024-02-19T23:35:24.944Z,3.78
2024-02-19T23:37:52.592Z,3.75
2024-02-19T23:40:19.486Z,4.13
2024-02-19T23:42:46.980Z,3.47
2024-02-19T23:45:14.287Z,7.28
2024-02-19T23:47:41.389Z,6.65
2024-02-19T23:50:09.584Z,5.60
2024-02-19T23:52:37.062Z,4.20
2024-02-19T23:55:04.542Z,5.32
2024-02-19T23:57:31.720Z,6.82
2024-02-19T23:59:58.594Z,4.20
